AirNav   Duncan Aviation - Near you to keep you flying
 
 805 users online  

MN32 Nietz Airstrip
Oronoco, Minnesota, USA

GOING TO ORONOCO?


FAA INFORMATION EFFECTIVE 01 DECEMBER 2022

Location

FAA Identifier: MN32
Lat/Long: 44-11-28.8770N 092-27-09.6500W
44-11.481283N 092-27.160833W
44.1913547,-92.4526806
(estimated)
Elevation: 1130 ft. / 344 m (estimated)
Variation: 03E (1985)
From city: 4 miles NE of ORONOCO, MN
Time zone: UTC -6 (UTC -5 during Daylight Saving Time)
Zip code: 55991

Airport Operations

Airport use: Private use. Permission required prior to landing
Activation date: 02/1989
Control tower: no
ARTCC: MINNEAPOLIS CENTER
FSS: PRINCETON FLIGHT SERVICE STATION
Attendance: UNATNDD
Wind indicator: yes
Segmented circle: no

Airport Communications

CTAF: 122.9
WX ASOS at RST (17 nm S): PHONE 507-424-8146
WX AWOS-3 at TOB (19 nm SW): 119.075 (507-374-6369)

Nearby radio navigation aids

VOR radial/distance  VOR name  Freq  Var
RSTr009/25.3ROCHESTER VOR/DME112.0005E
FOWr089/39.5HALFWAY VOR/DME111.2002E

Airport Services

Runway Information

Runway 10/28

Dimensions: 1900 x 150 ft. / 579 x 46 m
Surface: turf
RUNWAY 10  RUNWAY 28
Traffic pattern: leftleft
Obstructions: none20 ft. pline, marked, 250 ft. from runway

Airport Ownership and Management from official FAA records

Ownership: Privately-owned
Owner: MICHELLE NIETZ
40596 RYANS BAY RD
ZUMBRO FALLS, MN 55991-5001
Phone 507-288-1433
Manager: MICHELLE NIETZ
40596 RYANS BAY RD
ZUMBRO FALLS, MN 55991-5001
Phone 507-288-1433

Airport Operational Statistics

Aircraft based on the field: 3
Single engine airplanes: 1
Gliders airplanes: 1
Ultralights: 1
    

Additional Remarks

FOR CD CTC MINNEAPOLIS ARTCC AT 651-463-5588.

Instrument Procedures

There are no published instrument procedures at MN32.

Some nearby airports with instrument procedures:

KRST - Rochester International Airport (17 nm S)
KTOB - Dodge Center Airport (19 nm SW)
KRGK - Red Wing Regional Airport (24 nm N)
KONA - Winona Municipal Airport-Max Conrad Field (33 nm E)
KFKA - Fillmore County Airport (33 nm S)
 
Loc | Ops | Rwys | IFR | FBO | Links
Com | Nav | Svcs | Stats | Notes
Area around MN32 (Nietz Airstrip)
 
Road maps at: MapQuest Bing Google
 
Aerial photo
No photo
 
Sectional chart

 
Airport distance calculator
Flying to Nietz Airstrip? Find the distance to fly.

From to MN32

Sunrise and sunset
Times for 03-Dec-2022
 Local
(UTC-6)
 Zulu
(UTC)
Morning civil twilight06:5612:56
Sunrise07:2813:28
Sunset16:3122:31
Evening civil twilight17:0423:04

Current date and time
Zulu (UTC)  04-Dec-2022 03:23:49
Local (UTC-6)  03-Dec-2022 21:23:49
 
METAR
K9MN 
10nm S 
040255Z AUTO 17008G15KT 140V200 10SM CLR M08/M13 A3027 RMK AO1 T10831135
KRST 
18nm S 
040254Z 19017KT 10SM CLR M09/M13 A3024 RMK AO2 SLP270 T10891133 56020 $
KTOB 
19nm SW 
040255Z AUTO 19011KT 10SM CLR M09/M13 A3024 RMK AO2
TAF
KRST 
18nm S 
031720Z 0318/0418 28014KT P6SM FEW200 FM032300 23006KT P6SM SKC
NOTAMs
Click for the latest NOTAMs
NOTAMs are issued by the DoD/FAA and will open in a separate window not controlled by AirNav.

 

 
 

Would you like to see your business listed on this page?

 If your business provides an interesting product or service to pilots, flight crews, aircraft, or users of the Nietz Airstrip, you should consider listing it here.  To start the listing process, click on the button below
 
Add a business
 

Other Pages about Nietz Airstrip

Update a link
 
Copyright © AirNav, LLC. All rights reserved. Privacy Policy  Contact